sensor_id;sensor_type;location;lat;lon;timestamp;P1;durP1;ratioP1;P2;durP2;ratioP2
13090;SDS011;6611;52.604;13.438;2024-01-15T00:01:55;11.00;;;7.23;;
13090;SDS011;6611;52.604;13.438;2024-01-15T00:06:58;12.70;;;7.43;;
13090;SDS011;6611;52.604;13.438;2024-01-15T00:12:00;12.83;;;7.10;;
13090;SDS011;6611;52.604;13.438;2024-01-15T00:17:02;10.20;;;7.03;;
13090;SDS011;6611;52.604;13.438;2024-01-15T00:22:05;12.77;;;7.37;;
13090;SDS011;6611;52.604;13.438;2024-01-15T00:27:06;11.50;;;6.87;;
13090;SDS011;6611;52.604;13.438;2024-01-15T00:32:08;9.97;;;6.87;;
13090;SDS011;6611;52.604;13.438;2024-01-15T00:37:11;11.53;;;7.27;;
13090;SDS011;6611;52.604;13.438;2024-01-15T00:42:13;9.03;;;6.30;;
13090;SDS011;6611;52.604;13.438;2024-01-15T00:47:14;9.93;;;6.30;;
13090;SDS011;6611;52.604;13.438;2024-01-15T00:52:17;10.13;;;6.73;;
13090;SDS011;6611;52.604;13.438;2024-01-15T00:57:19;11.47;;;7.23;;
13090;SDS011;6611;52.604;13.438;2024-01-15T01:02:20;10.43;;;6.57;;
13090;SDS011;6611;52.604;13.438;2024-01-15T01:07:23;12.03;;;7.53;;
13090;SDS011;6611;52.604;13.438;2024-01-15T01:12:25;11.20;;;7.40;;
13090;SDS011;6611;52.604;13.438;2024-01-15T01:17:27;9.87;;;6.43;;
13090;SDS011;6611;52.604;13.438;2024-01-15T01:22:32;10.50;;;7.07;;
13090;SDS011;6611;52.604;13.438;2024-01-15T01:27:34;9.90;;;6.60;;
13090;SDS011;6611;52.604;13.438;2024-01-15T01:32:36;10.03;;;6.23;;
13090;SDS011;6611;52.604;13.438;2024-01-15T01:37:39;11.37;;;6.67;;
13090;SDS011;6611;52.604;13.438;2024-01-15T01:42:41;7.50;;;5.33;;
13090;SDS011;6611;52.604;13.438;2024-01-15T01:47:42;10.63;;;5.77;;
13090;SDS011;6611;52.604;13.438;2024-01-15T01:52:46;9.10;;;6.00;;
13090;SDS011;6611;52.604;13.438;2024-01-15T01:57:47;10.67;;;6.37;;
13090;SDS011;6611;52.604;13.438;2024-01-15T02:02:49;8.23;;;5.77;;
13090;SDS011;6611;52.604;13.438;2024-01-15T02:07:53;8.53;;;4.90;;
13090;SDS011;6611;52.604;13.438;2024-01-15T02:12:54;9.63;;;6.70;;
13090;SDS011;6611;52.604;13.438;2024-01-15T02:17:56;12.27;;;5.57;;
13090;SDS011;6611;52.604;13.438;2024-01-15T02:23:06;7.47;;;4.97;;
13090;SDS011;6611;52.604;13.438;2024-01-15T02:28:10;10.80;;;6.17;;
13090;SDS011;6611;52.604;13.438;2024-01-15T02:33:13;10.37;;;5.10;;
13090;SDS011;6611;52.604;13.438;2024-01-15T02:38:16;8.57;;;5.10;;
13090;SDS011;6611;52.604;13.438;2024-01-15T02:43:18;7.77;;;4.93;;
13090;SDS011;6611;52.604;13.438;2024-01-15T02:48:20;5.90;;;4.30;;
13090;SDS011;6611;52.604;13.438;2024-01-15T02:53:23;7.83;;;4.90;;
13090;SDS011;6611;52.604;13.438;2024-01-15T02:58:24;7.37;;;4.10;;
13090;SDS011;6611;52.604;13.438;2024-01-15T03:03:26;8.43;;;4.13;;
13090;SDS011;6611;52.604;13.438;2024-01-15T03:08:29;7.23;;;4.27;;
13090;SDS011;6611;52.604;13.438;2024-01-15T03:13:31;6.00;;;3.90;;
13090;SDS011;6611;52.604;13.438;2024-01-15T03:18:32;6.63;;;4.00;;
13090;SDS011;6611;52.604;13.438;2024-01-15T03:23:35;5.63;;;3.70;;
13090;SDS011;6611;52.604;13.438;2024-01-15T03:28:37;6.40;;;3.60;;
13090;SDS011;6611;52.604;13.438;2024-01-15T03:33:38;5.97;;;3.60;;
13090;SDS011;6611;52.604;13.438;2024-01-15T03:38:41;4.63;;;2.87;;
13090;SDS011;6611;52.604;13.438;2024-01-15T03:43:43;7.97;;;4.03;;
13090;SDS011;6611;52.604;13.438;2024-01-15T03:48:45;6.07;;;3.60;;
13090;SDS011;6611;52.604;13.438;2024-01-15T03:53:48;8.07;;;4.07;;
13090;SDS011;6611;52.604;13.438;2024-01-15T03:58:49;6.10;;;3.70;;
13090;SDS011;6611;52.604;13.438;2024-01-15T04:03:51;9.00;;;4.00;;
13090;SDS011;6611;52.604;13.438;2024-01-15T04:08:54;7.77;;;3.17;;
13090;SDS011;6611;52.604;13.438;2024-01-15T04:13:56;7.60;;;4.00;;
13090;SDS011;6611;52.604;13.438;2024-01-15T04:18:57;7.20;;;3.47;;
13090;SDS011;6611;52.604;13.438;2024-01-15T04:24:00;5.33;;;3.30;;
13090;SDS011;6611;52.604;13.438;2024-01-15T04:29:02;5.37;;;3.20;;
13090;SDS011;6611;52.604;13.438;2024-01-15T04:34:03;7.83;;;3.60;;
13090;SDS011;6611;52.604;13.438;2024-01-15T04:39:06;5.50;;;2.80;;
13090;SDS011;6611;52.604;13.438;2024-01-15T04:44:08;6.63;;;3.07;;
13090;SDS011;6611;52.604;13.438;2024-01-15T04:49:10;4.43;;;2.70;;
13090;SDS011;6611;52.604;13.438;2024-01-15T04:54:13;4.30;;;2.50;;
13090;SDS011;6611;52.604;13.438;2024-01-15T04:59:17;4.07;;;2.37;;
13090;SDS011;6611;52.604;13.438;2024-01-15T05:04:19;5.40;;;2.63;;
13090;SDS011;6611;52.604;13.438;2024-01-15T05:09:22;6.90;;;3.27;;
13090;SDS011;6611;52.604;13.438;2024-01-15T05:14:23;7.77;;;2.53;;
13090;SDS011;6611;52.604;13.438;2024-01-15T05:19:25;4.67;;;2.07;;
13090;SDS011;6611;52.604;13.438;2024-01-15T05:24:28;5.70;;;2.20;;
13090;SDS011;6611;52.604;13.438;2024-01-15T05:29:30;4.57;;;2.03;;
13090;SDS011;6611;52.604;13.438;2024-01-15T05:34:31;3.47;;;1.77;;
13090;SDS011;6611;52.604;13.438;2024-01-15T05:39:34;9.00;;;2.10;;
13090;SDS011;6611;52.604;13.438;2024-01-15T05:44:37;2.77;;;1.47;;
13090;SDS011;6611;52.604;13.438;2024-01-15T05:49:38;3.70;;;1.70;;
13090;SDS011;6611;52.604;13.438;2024-01-15T05:54:41;6.37;;;2.37;;
13090;SDS011;6611;52.604;13.438;2024-01-15T05:59:44;3.37;;;1.87;;
13090;SDS011;6611;52.604;13.438;2024-01-15T06:04:46;5.43;;;1.30;;
13090;SDS011;6611;52.604;13.438;2024-01-15T06:09:49;4.07;;;1.43;;
13090;SDS011;6611;52.604;13.438;2024-01-15T06:14:51;3.83;;;1.40;;
13090;SDS011;6611;52.604;13.438;2024-01-15T06:19:52;4.47;;;1.40;;
13090;SDS011;6611;52.604;13.438;2024-01-15T06:24:55;4.70;;;2.23;;
13090;SDS011;6611;52.604;13.438;2024-01-15T06:29:57;3.43;;;1.23;;
13090;SDS011;6611;52.604;13.438;2024-01-15T06:34:59;3.47;;;1.17;;
13090;SDS011;6611;52.604;13.438;2024-01-15T06:40:02;4.73;;;1.50;;
13090;SDS011;6611;52.604;13.438;2024-01-15T06:45:06;3.90;;;1.33;;
13090;SDS011;6611;52.604;13.438;2024-01-15T06:50:08;5.00;;;1.30;;
13090;SDS011;6611;52.604;13.438;2024-01-15T06:55:12;4.57;;;1.23;;
13090;SDS011;6611;52.604;13.438;2024-01-15T07:00:14;4.03;;;1.50;;
13090;SDS011;6611;52.604;13.438;2024-01-15T07:05:16;5.50;;;1.57;;
13090;SDS011;6611;52.604;13.438;2024-01-15T07:10:19;2.13;;;1.03;;
13090;SDS011;6611;52.604;13.438;2024-01-15T07:15:21;5.83;;;1.43;;
13090;SDS011;6611;52.604;13.438;2024-01-15T07:20:23;3.93;;;1.83;;
13090;SDS011;6611;52.604;13.438;2024-01-15T07:25:26;5.83;;;1.83;;
13090;SDS011;6611;52.604;13.438;2024-01-15T07:30:27;3.67;;;1.40;;
13090;SDS011;6611;52.604;13.438;2024-01-15T07:35:29;4.30;;;1.57;;
13090;SDS011;6611;52.604;13.438;2024-01-15T07:40:32;6.13;;;1.53;;
13090;SDS011;6611;52.604;13.438;2024-01-15T07:45:34;7.03;;;1.43;;
13090;SDS011;6611;52.604;13.438;2024-01-15T07:50:35;4.23;;;1.50;;
13090;SDS011;6611;52.604;13.438;2024-01-15T07:55:38;7.13;;;1.47;;
13090;SDS011;6611;52.604;13.438;2024-01-15T08:00:40;4.13;;;1.70;;
13090;SDS011;6611;52.604;13.438;2024-01-15T08:05:41;5.90;;;1.70;;
13090;SDS011;6611;52.604;13.438;2024-01-15T08:10:45;6.43;;;1.30;;
13090;SDS011;6611;52.604;13.438;2024-01-15T08:15:46;5.13;;;1.53;;
13090;SDS011;6611;52.604;13.438;2024-01-15T08:20:48;8.77;;;2.07;;
13090;SDS011;6611;52.604;13.438;2024-01-15T08:25:52;4.20;;;0.90;;
13090;SDS011;6611;52.604;13.438;2024-01-15T08:30:54;7.33;;;1.57;;
13090;SDS011;6611;52.604;13.438;2024-01-15T08:35:55;7.10;;;1.50;;
13090;SDS011;6611;52.604;13.438;2024-01-15T08:40:59;2.87;;;1.37;;
13090;SDS011;6611;52.604;13.438;2024-01-15T08:46:00;3.63;;;1.13;;
13090;SDS011;6611;52.604;13.438;2024-01-15T08:51:02;3.97;;;1.37;;
13090;SDS011;6611;52.604;13.438;2024-01-15T08:56:06;8.67;;;1.60;;
13090;SDS011;6611;52.604;13.438;2024-01-15T09:01:08;3.37;;;1.50;;
13090;SDS011;6611;52.604;13.438;2024-01-15T09:06:10;4.00;;;1.57;;
13090;SDS011;6611;52.604;13.438;2024-01-15T09:11:13;4.03;;;1.27;;
13090;SDS011;6611;52.604;13.438;2024-01-15T09:16:15;6.60;;;1.43;;
13090;SDS011;6611;52.604;13.438;2024-01-15T09:21:16;6.37;;;1.30;;
13090;SDS011;6611;52.604;13.438;2024-01-15T09:26:19;3.50;;;1.37;;
13090;SDS011;6611;52.604;13.438;2024-01-15T09:31:21;6.73;;;1.20;;
13090;SDS011;6611;52.604;13.438;2024-01-15T09:36:23;4.60;;;1.50;;
13090;SDS011;6611;52.604;13.438;2024-01-15T09:41:26;1.53;;;1.00;;
13090;SDS011;6611;52.604;13.438;2024-01-15T09:46:30;3.93;;;1.30;;
13090;SDS011;6611;52.604;13.438;2024-01-15T09:51:32;5.40;;;1.30;;
13090;SDS011;6611;52.604;13.438;2024-01-15T09:56:35;4.20;;;1.30;;
13090;SDS011;6611;52.604;13.438;2024-01-15T10:01:37;2.33;;;1.00;;
13090;SDS011;6611;52.604;13.438;2024-01-15T10:06:45;3.70;;;1.33;;
13090;SDS011;6611;52.604;13.438;2024-01-15T10:11:56;4.77;;;1.50;;
13090;SDS011;6611;52.604;13.438;2024-01-15T10:16:58;3.33;;;1.03;;
13090;SDS011;6611;52.604;13.438;2024-01-15T10:22:00;4.67;;;1.50;;
13090;SDS011;6611;52.604;13.438;2024-01-15T10:27:07;2.97;;;2.23;;
13090;SDS011;6611;52.604;13.438;2024-01-15T10:32:11;5.17;;;2.20;;
13090;SDS011;6611;52.604;13.438;2024-01-15T10:37:12;3.33;;;1.20;;
13090;SDS011;6611;52.604;13.438;2024-01-15T10:42:16;4.40;;;1.57;;
13090;SDS011;6611;52.604;13.438;2024-01-15T10:47:18;2.07;;;0.80;;
13090;SDS011;6611;52.604;13.438;2024-01-15T10:52:21;2.50;;;1.00;;
13090;SDS011;6611;52.604;13.438;2024-01-15T10:57:25;3.90;;;0.93;;
13090;SDS011;6611;52.604;13.438;2024-01-15T11:02:29;2.33;;;0.80;;
13090;SDS011;6611;52.604;13.438;2024-01-15T11:07:35;0.83;;;0.73;;
13090;SDS011;6611;52.604;13.438;2024-01-15T11:12:47;1.97;;;1.00;;
13090;SDS011;6611;52.604;13.438;2024-01-15T11:17:59;2.40;;;0.90;;
13090;SDS011;6611;52.604;13.438;2024-01-15T11:23:05;4.23;;;0.97;;
13090;SDS011;6611;52.604;13.438;2024-01-15T11:28:10;1.10;;;0.53;;
13090;SDS011;6611;52.604;13.438;2024-01-15T11:38:34;2.60;;;0.60;;
13090;SDS011;6611;52.604;13.438;2024-01-15T11:43:37;2.27;;;0.80;;
13090;SDS011;6611;52.604;13.438;2024-01-15T11:48:42;2.50;;;0.63;;
13090;SDS011;6611;52.604;13.438;2024-01-15T11:53:47;1.03;;;0.70;;
13090;SDS011;6611;52.604;13.438;2024-01-15T11:58:53;1.33;;;0.70;;
13090;SDS011;6611;52.604;13.438;2024-01-15T12:03:56;2.10;;;0.77;;
13090;SDS011;6611;52.604;13.438;2024-01-15T12:09:05;1.10;;;0.77;;
13090;SDS011;6611;52.604;13.438;2024-01-15T12:14:09;1.73;;;0.90;;
13090;SDS011;6611;52.604;13.438;2024-01-15T12:19:11;1.97;;;0.80;;
13090;SDS011;6611;52.604;13.438;2024-01-15T12:24:12;1.03;;;0.70;;
13090;SDS011;6611;52.604;13.438;2024-01-15T12:29:18;1.93;;;0.80;;
13090;SDS011;6611;52.604;13.438;2024-01-15T12:34:21;1.97;;;0.80;;
13090;SDS011;6611;52.604;13.438;2024-01-15T12:39:22;2.50;;;0.80;;
13090;SDS011;6611;52.604;13.438;2024-01-15T12:44:26;3.40;;;0.80;;
13090;SDS011;6611;52.604;13.438;2024-01-15T12:49:29;0.87;;;0.77;;
13090;SDS011;6611;52.604;13.438;2024-01-15T12:54:30;1.20;;;0.70;;
13090;SDS011;6611;52.604;13.438;2024-01-15T12:59:33;1.47;;;0.60;;
13090;SDS011;6611;52.604;13.438;2024-01-15T13:04:35;1.60;;;0.77;;
13090;SDS011;6611;52.604;13.438;2024-01-15T13:09:37;1.73;;;0.80;;
13090;SDS011;6611;52.604;13.438;2024-01-15T13:14:40;0.70;;;0.60;;
13090;SDS011;6611;52.604;13.438;2024-01-15T13:19:42;2.43;;;1.07;;
13090;SDS011;6611;52.604;13.438;2024-01-15T13:24:43;0.90;;;0.70;;
13090;SDS011;6611;52.604;13.438;2024-01-15T13:29:47;1.70;;;1.10;;
13090;SDS011;6611;52.604;13.438;2024-01-15T13:34:48;1.83;;;0.90;;
13090;SDS011;6611;52.604;13.438;2024-01-15T13:39:50;0.90;;;0.70;;
13090;SDS011;6611;52.604;13.438;2024-01-15T13:44:54;1.43;;;0.60;;
13090;SDS011;6611;52.604;13.438;2024-01-15T13:49:56;1.60;;;0.70;;
13090;SDS011;6611;52.604;13.438;2024-01-15T13:54:58;1.33;;;0.60;;
13090;SDS011;6611;52.604;13.438;2024-01-15T14:00:01;0.77;;;0.70;;
13090;SDS011;6611;52.604;13.438;2024-01-15T14:05:09;2.07;;;0.90;;
13090;SDS011;6611;52.604;13.438;2024-01-15T14:10:12;3.87;;;0.90;;
13090;SDS011;6611;52.604;13.438;2024-01-15T14:15:16;1.23;;;0.83;;
13090;SDS011;6611;52.604;13.438;2024-01-15T14:20:19;2.47;;;1.00;;
13090;SDS011;6611;52.604;13.438;2024-01-15T14:25:20;1.70;;;1.07;;
13090;SDS011;6611;52.604;13.438;2024-01-15T14:30:24;4.00;;;1.30;;
13090;SDS011;6611;52.604;13.438;2024-01-15T14:35:26;1.20;;;1.00;;
13090;SDS011;6611;52.604;13.438;2024-01-15T14:40:27;3.83;;;1.00;;
13090;SDS011;6611;52.604;13.438;2024-01-15T14:45:31;1.73;;;1.00;;
13090;SDS011;6611;52.604;13.438;2024-01-15T14:50:32;4.07;;;1.37;;
13090;SDS011;6611;52.604;13.438;2024-01-15T14:55:34;2.83;;;1.03;;
13090;SDS011;6611;52.604;13.438;2024-01-15T15:00:37;4.63;;;1.13;;
13090;SDS011;6611;52.604;13.438;2024-01-15T15:05:39;3.00;;;0.90;;
13090;SDS011;6611;52.604;13.438;2024-01-15T15:10:40;5.80;;;1.60;;
13090;SDS011;6611;52.604;13.438;2024-01-15T15:15:43;4.27;;;1.30;;
13090;SDS011;6611;52.604;13.438;2024-01-15T15:20:45;1.97;;;1.00;;
13090;SDS011;6611;52.604;13.438;2024-01-15T15:25:47;3.23;;;1.50;;
13090;SDS011;6611;52.604;13.438;2024-01-15T15:30:50;3.73;;;0.90;;
13090;SDS011;6611;52.604;13.438;2024-01-15T15:35:51;1.33;;;1.00;;
13090;SDS011;6611;52.604;13.438;2024-01-15T15:40:53;3.67;;;1.00;;
13090;SDS011;6611;52.604;13.438;2024-01-15T15:45:57;4.47;;;1.33;;
13090;SDS011;6611;52.604;13.438;2024-01-15T15:50:58;2.40;;;0.90;;
13090;SDS011;6611;52.604;13.438;2024-01-15T15:56:02;2.10;;;1.27;;
13090;SDS011;6611;52.604;13.438;2024-01-15T16:01:06;2.43;;;1.30;;
13090;SDS011;6611;52.604;13.438;2024-01-15T16:06:08;3.33;;;1.47;;
13090;SDS011;6611;52.604;13.438;2024-01-15T16:11:09;1.83;;;1.10;;
13090;SDS011;6611;52.604;13.438;2024-01-15T16:16:12;1.27;;;1.17;;
13090;SDS011;6611;52.604;13.438;2024-01-15T16:21:14;4.63;;;1.30;;
13090;SDS011;6611;52.604;13.438;2024-01-15T16:26:15;1.77;;;1.27;;
13090;SDS011;6611;52.604;13.438;2024-01-15T16:31:18;5.00;;;1.70;;
13090;SDS011;6611;52.604;13.438;2024-01-15T16:36:20;2.87;;;1.20;;
13090;SDS011;6611;52.604;13.438;2024-01-15T16:41:22;3.17;;;1.63;;
13090;SDS011;6611;52.604;13.438;2024-01-15T16:46:25;3.47;;;2.07;;
13090;SDS011;6611;52.604;13.438;2024-01-15T16:51:26;2.37;;;1.50;;
13090;SDS011;6611;52.604;13.438;2024-01-15T16:56:28;2.53;;;1.40;;
13090;SDS011;6611;52.604;13.438;2024-01-15T17:01:31;2.90;;;1.40;;
13090;SDS011;6611;52.604;13.438;2024-01-15T17:06:33;1.97;;;1.53;;
13090;SDS011;6611;52.604;13.438;2024-01-15T17:11:34;2.37;;;1.83;;
13090;SDS011;6611;52.604;13.438;2024-01-15T17:16:37;4.60;;;2.13;;
13090;SDS011;6611;52.604;13.438;2024-01-15T17:21:39;2.97;;;1.70;;
13090;SDS011;6611;52.604;13.438;2024-01-15T17:26:41;3.17;;;1.67;;
13090;SDS011;6611;52.604;13.438;2024-01-15T17:31:44;3.07;;;1.73;;
13090;SDS011;6611;52.604;13.438;2024-01-15T17:36:47;2.63;;;1.43;;
13090;SDS011;6611;52.604;13.438;2024-01-15T17:41:48;2.37;;;1.57;;
13090;SDS011;6611;52.604;13.438;2024-01-15T17:46:52;5.47;;;1.90;;
13090;SDS011;6611;52.604;13.438;2024-01-15T17:51:55;3.93;;;1.83;;
13090;SDS011;6611;52.604;13.438;2024-01-15T17:56:57;2.03;;;1.23;;
13090;SDS011;6611;52.604;13.438;2024-01-15T18:02:00;2.17;;;1.50;;
13090;SDS011;6611;52.604;13.438;2024-01-15T18:07:02;2.97;;;1.93;;
13090;SDS011;6611;52.604;13.438;2024-01-15T18:12:04;2.90;;;1.33;;
13090;SDS011;6611;52.604;13.438;2024-01-15T18:17:07;4.60;;;1.80;;
13090;SDS011;6611;52.604;13.438;2024-01-15T18:22:09;1.97;;;1.10;;
13090;SDS011;6611;52.604;13.438;2024-01-15T18:27:10;3.27;;;1.20;;
13090;SDS011;6611;52.604;13.438;2024-01-15T18:32:14;4.17;;;1.43;;
13090;SDS011;6611;52.604;13.438;2024-01-15T18:37:15;2.57;;;1.60;;
13090;SDS011;6611;52.604;13.438;2024-01-15T18:42:17;1.47;;;1.30;;
13090;SDS011;6611;52.604;13.438;2024-01-15T18:47:20;4.30;;;2.00;;
13090;SDS011;6611;52.604;13.438;2024-01-15T18:52:22;4.30;;;2.00;;
13090;SDS011;6611;52.604;13.438;2024-01-15T18:57:23;3.93;;;2.00;;
13090;SDS011;6611;52.604;13.438;2024-01-15T19:02:27;4.50;;;1.70;;
13090;SDS011;6611;52.604;13.438;2024-01-15T19:07:28;5.47;;;1.40;;
13090;SDS011;6611;52.604;13.438;2024-01-15T19:12:30;3.73;;;1.43;;
13090;SDS011;6611;52.604;13.438;2024-01-15T19:17:33;2.17;;;1.20;;
13090;SDS011;6611;52.604;13.438;2024-01-15T19:22:35;4.23;;;1.30;;
13090;SDS011;6611;52.604;13.438;2024-01-15T19:27:36;3.33;;;1.63;;
13090;SDS011;6611;52.604;13.438;2024-01-15T19:32:44;3.60;;;1.47;;
13090;SDS011;6611;52.604;13.438;2024-01-15T19:37:46;4.00;;;2.27;;
13090;SDS011;6611;52.604;13.438;2024-01-15T19:42:48;2.40;;;2.00;;
13090;SDS011;6611;52.604;13.438;2024-01-15T19:47:51;2.83;;;1.80;;
13090;SDS011;6611;52.604;13.438;2024-01-15T19:52:52;2.97;;;1.70;;
13090;SDS011;6611;52.604;13.438;2024-01-15T19:57:54;3.37;;;1.23;;
13090;SDS011;6611;52.604;13.438;2024-01-15T20:02:57;3.53;;;1.20;;
13090;SDS011;6611;52.604;13.438;2024-01-15T20:07:59;3.87;;;1.37;;
13090;SDS011;6611;52.604;13.438;2024-01-15T20:13:03;2.33;;;1.23;;
13090;SDS011;6611;52.604;13.438;2024-01-15T20:18:06;4.10;;;1.30;;
13090;SDS011;6611;52.604;13.438;2024-01-15T20:23:08;2.60;;;1.30;;
13090;SDS011;6611;52.604;13.438;2024-01-15T20:28:10;1.67;;;1.37;;
13090;SDS011;6611;52.604;13.438;2024-01-15T20:33:13;3.87;;;1.30;;
13090;SDS011;6611;52.604;13.438;2024-01-15T20:38:16;2.33;;;1.40;;
13090;SDS011;6611;52.604;13.438;2024-01-15T20:43:17;2.23;;;1.60;;
13090;SDS011;6611;52.604;13.438;2024-01-15T20:48:20;2.40;;;1.50;;
13090;SDS011;6611;52.604;13.438;2024-01-15T20:53:23;3.57;;;1.77;;
13090;SDS011;6611;52.604;13.438;2024-01-15T20:58:24;3.10;;;1.60;;
13090;SDS011;6611;52.604;13.438;2024-01-15T21:03:29;5.17;;;1.40;;
13090;SDS011;6611;52.604;13.438;2024-01-15T21:08:31;3.63;;;1.50;;
13090;SDS011;6611;52.604;13.438;2024-01-15T21:13:33;3.27;;;1.17;;
13090;SDS011;6611;52.604;13.438;2024-01-15T21:18:36;5.70;;;1.67;;
13090;SDS011;6611;52.604;13.438;2024-01-15T21:23:37;2.90;;;1.43;;
13090;SDS011;6611;52.604;13.438;2024-01-15T21:28:40;4.17;;;1.60;;
13090;SDS011;6611;52.604;13.438;2024-01-15T21:33:43;3.03;;;1.40;;
13090;SDS011;6611;52.604;13.438;2024-01-15T21:38:45;2.10;;;1.30;;
13090;SDS011;6611;52.604;13.438;2024-01-15T21:43:47;1.87;;;1.20;;
13090;SDS011;6611;52.604;13.438;2024-01-15T21:48:50;2.00;;;1.10;;
13090;SDS011;6611;52.604;13.438;2024-01-15T21:53:52;2.07;;;1.30;;
13090;SDS011;6611;52.604;13.438;2024-01-15T21:58:53;2.60;;;1.20;;
13090;SDS011;6611;52.604;13.438;2024-01-15T22:03:56;3.00;;;1.60;;
13090;SDS011;6611;52.604;13.438;2024-01-15T22:08:58;2.10;;;1.20;;
13090;SDS011;6611;52.604;13.438;2024-01-15T22:14:00;2.80;;;1.60;;
13090;SDS011;6611;52.604;13.438;2024-01-15T22:19:03;3.43;;;1.20;;
13090;SDS011;6611;52.604;13.438;2024-01-15T22:24:07;2.57;;;1.23;;
13090;SDS011;6611;52.604;13.438;2024-01-15T22:29:08;3.47;;;1.23;;
13090;SDS011;6611;52.604;13.438;2024-01-15T22:34:11;3.03;;;1.10;;
13090;SDS011;6611;52.604;13.438;2024-01-15T22:39:15;2.03;;;1.10;;
13090;SDS011;6611;52.604;13.438;2024-01-15T22:44:17;2.67;;;1.33;;
13090;SDS011;6611;52.604;13.438;2024-01-15T22:49:20;3.07;;;1.30;;
13090;SDS011;6611;52.604;13.438;2024-01-15T22:54:22;3.47;;;1.27;;
13090;SDS011;6611;52.604;13.438;2024-01-15T22:59:23;2.77;;;1.13;;
13090;SDS011;6611;52.604;13.438;2024-01-15T23:04:26;2.47;;;1.30;;
13090;SDS011;6611;52.604;13.438;2024-01-15T23:09:28;2.03;;;1.00;;
13090;SDS011;6611;52.604;13.438;2024-01-15T23:14:30;2.50;;;1.30;;
13090;SDS011;6611;52.604;13.438;2024-01-15T23:19:33;2.57;;;1.23;;
13090;SDS011;6611;52.604;13.438;2024-01-15T23:24:35;2.83;;;1.20;;
13090;SDS011;6611;52.604;13.438;2024-01-15T23:29:37;3.77;;;1.23;;
13090;SDS011;6611;52.604;13.438;2024-01-15T23:34:40;2.37;;;1.17;;
13090;SDS011;6611;52.604;13.438;2024-01-15T23:39:41;1.57;;;0.80;;
13090;SDS011;6611;52.604;13.438;2024-01-15T23:44:43;2.63;;;0.87;;
13090;SDS011;6611;52.604;13.438;2024-01-15T23:49:47;4.57;;;1.57;;
13090;SDS011;6611;52.604;13.438;2024-01-15T23:54:48;3.17;;;1.67;;
13090;SDS011;6611;52.604;13.438;2024-01-15T23:59:50;6.67;;;2.00;;
